Time;durP1;ratioP1;P1;durP2;ratioP2;P2;SDS_P1;SDS_P2;PMS_P1;PMS_P2;Temp;Humidity;BMP_temperature;BMP_pressure;BME280_temperature;BME280_humidity;BME280_pressure;Samples;Min_cycle;Max_cycle;Signal;HPM_P1;HPM_P2
2021/11/14 00:01:25;;;;;;;10.63;7.15;;;12.60;82.50;;;;;;4999087;28;20052;-79
2021/11/14 00:03:51;;;;;;;10.80;7.68;;;12.60;82.50;;;;;;5016400;28;20082;-79
2021/11/14 00:06:20;;;;;;;11.45;7.43;;;12.60;82.50;;;;;;5016139;28;20411;-80
2021/11/14 00:08:48;;;;;;;11.23;7.78;;;12.60;82.50;;;;;;4998623;28;20113;-79
2021/11/14 00:11:17;;;;;;;12.20;7.57;;;12.50;82.40;;;;;;4998830;28;20014;-80
2021/11/14 00:13:44;;;;;;;11.88;7.53;;;12.50;82.40;;;;;;5016048;28;20018;-79
2021/11/14 00:16:11;;;;;;;12.18;7.90;;;12.50;82.50;;;;;;4998292;28;20079;-79
2021/11/14 00:18:41;;;;;;;11.52;7.80;;;12.50;82.60;;;;;;4998536;28;20025;-80
2021/11/14 00:21:08;;;;;;;10.18;6.93;;;12.50;82.60;;;;;;4998775;28;20116;-79
2021/11/14 00:23:34;;;;;;;10.98;7.35;;;12.50;82.50;;;;;;4998183;28;20116;-79
2021/11/14 00:25:59;;;;;;;12.15;7.70;;;12.50;82.60;;;;;;4998054;28;20069;-80
2021/11/14 00:28:27;;;;;;;10.88;7.57;;;12.50;82.60;;;;;;4998255;28;20121;-79
2021/11/14 00:30:53;;;;;;;11.63;7.70;;;12.50;82.60;;;;;;5055948;23;20046;-75
2021/11/14 00:33:19;;;;;;;10.32;7.20;;;12.50;82.50;;;;;;4997131;28;20026;-75
2021/11/14 00:35:47;;;;;;;10.48;8.15;;;12.50;82.50;;;;;;4997100;28;20029;-75
2021/11/14 00:38:12;;;;;;;11.27;7.70;;;12.50;82.40;;;;;;4997481;28;20491;-75
2021/11/14 00:40:39;;;;;;;12.55;8.25;;;12.50;82.40;;;;;;4997373;28;20108;-74
2021/11/14 00:43:05;;;;;;;11.90;8.02;;;12.50;82.30;;;;;;5014808;28;20069;-74
2021/11/14 00:45:33;;;;;;;11.65;8.23;;;12.50;82.30;;;;;;4996916;28;20026;-75
2021/11/14 00:48:01;;;;;;;10.00;7.90;;;12.50;82.30;;;;;;4997022;28;20526;-74
2021/11/14 00:50:27;;;;;;;12.52;7.72;;;12.50;82.20;;;;;;4997062;28;20054;-75
2021/11/14 00:52:53;;;;;;;10.82;7.70;;;12.50;82.20;;;;;;4996501;28;20034;-75
2021/11/14 00:55:20;;;;;;;11.63;8.00;;;12.50;82.10;;;;;;5014166;28;20030;-72
2021/11/14 00:57:46;;;;;;;10.70;7.93;;;12.50;82.10;;;;;;5014524;28;20090;-73
2021/11/14 01:00:15;;;;;;;10.82;7.70;;;12.50;82.30;;;;;;4996902;28;20053;-73
2021/11/14 01:02:42;;;;;;;10.68;7.53;;;12.50;82.30;;;;;;5014406;28;20026;-75
2021/11/14 01:05:10;;;;;;;11.98;8.25;;;12.50;82.20;;;;;;4996664;28;20017;-75
2021/11/14 01:07:36;;;;;;;10.85;7.78;;;12.50;82.10;;;;;;4996847;28;20361;-75
2021/11/14 01:10:05;;;;;;;11.15;8.15;;;12.50;82.10;;;;;;4996796;28;20028;-75
2021/11/14 01:12:31;;;;;;;10.70;7.50;;;12.50;82.20;;;;;;4996757;28;20026;-74
2021/11/14 01:14:56;;;;;;;11.70;7.57;;;12.50;82.20;;;;;;5014225;28;20022;-75
2021/11/14 01:17:22;;;;;;;10.98;7.93;;;12.50;82.20;;;;;;5013884;28;20558;-75
2021/11/14 01:19:48;;;;;;;10.98;7.63;;;12.50;82.20;;;;;;4996619;28;20109;-75
2021/11/14 01:22:15;;;;;;;11.10;8.10;;;12.50;82.20;;;;;;5014221;28;20463;-75
2021/11/14 01:24:41;;;;;;;10.88;7.85;;;12.50;82.20;;;;;;5014002;28;20022;-75
2021/11/14 01:27:07;;;;;;;11.77;7.57;;;12.50;82.30;;;;;;5013805;28;20100;-75
2021/11/14 01:29:32;;;;;;;10.80;7.45;;;12.50;82.30;;;;;;4996462;28;20030;-75
2021/11/14 01:31:58;;;;;;;11.02;7.05;;;12.50;82.40;;;;;;4996244;28;20041;-74
2021/11/14 01:34:24;;;;;;;10.90;7.75;;;12.50;82.50;;;;;;4996341;28;20158;-74
2021/11/14 01:36:50;;;;;;;10.65;7.60;;;12.50;82.50;;;;;;4996067;28;20026;-76
2021/11/14 01:39:15;;;;;;;10.43;7.70;;;12.50;82.50;;;;;;4996330;28;20065;-76
2021/11/14 01:41:42;;;;;;;10.40;7.68;;;12.50;82.40;;;;;;4996289;28;20079;-76
2021/11/14 01:44:08;;;;;;;9.70;6.95;;;12.50;82.40;;;;;;4995990;28;20541;-76
2021/11/14 01:46:35;;;;;;;11.00;7.57;;;12.50;82.40;;;;;;5013313;28;20049;-75
2021/11/14 01:49:01;;;;;;;9.32;7.03;;;12.50;82.50;;;;;;4995892;28;20022;-75
2021/11/14 01:51:27;;;;;;;10.85;7.82;;;12.50;82.60;;;;;;4995838;28;20068;-76
2021/11/14 01:53:52;;;;;;;10.75;7.90;;;12.50;82.70;;;;;;5013614;28;20018;-75
2021/11/14 01:56:20;;;;;;;11.75;8.30;;;12.50;82.80;;;;;;5013244;28;20026;-75
2021/11/14 01:58:46;;;;;;;11.20;7.63;;;12.50;82.80;;;;;;5013408;28;20100;-75
2021/11/14 02:01:20;;;;;;;11.65;7.13;;;12.50;82.90;;;;;;4995740;28;20057;-75
2021/11/14 02:03:50;;;;;;;10.63;7.40;;;12.50;83.00;;;;;;5013373;28;20062;-75
2021/11/14 02:06:16;;;;;;;10.63;7.60;;;12.50;82.90;;;;;;4994395;28;20022;-75
2021/11/14 02:08:43;;;;;;;10.60;7.32;;;12.50;83.40;;;;;;5013153;28;20022;-76
2021/11/14 02:11:10;;;;;;;11.77;7.57;;;12.40;82.80;;;;;;4995808;28;20022;-76
2021/11/14 02:13:36;;;;;;;10.40;7.28;;;12.60;82.80;;;;;;5013175;28;20026;-76
2021/11/14 02:16:03;;;;;;;11.35;7.50;;;12.60;82.80;;;;;;4995199;28;20450;-75
2021/11/14 02:18:28;;;;;;;11.23;7.55;;;12.60;82.60;;;;;;5013131;28;20079;-76
2021/11/14 02:20:54;;;;;;;9.93;7.25;;;12.60;82.60;;;;;;4995524;28;20030;-74
2021/11/14 02:23:23;;;;;;;11.23;7.38;;;12.60;82.50;;;;;;4995316;28;20063;-75
2021/11/14 02:25:50;;;;;;;9.98;7.28;;;12.60;82.50;;;;;;4995101;28;20029;-74
2021/11/14 02:28:17;;;;;;;10.18;7.15;;;12.60;82.40;;;;;;4995299;28;20037;-74
2021/11/14 02:30:44;;;;;;;11.07;7.75;;;12.60;82.50;;;;;;5012628;28;20030;-75
2021/11/14 02:33:10;;;;;;;10.93;7.50;;;12.60;82.50;;;;;;4995141;28;20033;-74
2021/11/14 02:35:36;;;;;;;10.45;7.50;;;12.60;82.60;;;;;;5012543;28;20392;-75
2021/11/14 02:38:03;;;;;;;12.38;8.15;;;12.60;82.60;;;;;;4995347;28;20026;-75
2021/11/14 02:40:29;;;;;;;11.20;7.60;;;12.60;82.70;;;;;;4995094;28;20030;-77
2021/11/14 02:42:55;;;;;;;11.52;8.18;;;12.60;82.80;;;;;;4994988;28;20030;-75
2021/11/14 02:45:24;;;;;;;11.20;8.00;;;12.60;82.70;;;;;;5012262;28;20029;-75
2021/11/14 02:47:50;;;;;;;11.43;7.95;;;12.50;82.80;;;;;;4995011;28;20045;-75
2021/11/14 02:50:17;;;;;;;10.73;8.00;;;12.50;83.00;;;;;;5012516;28;20022;-76
2021/11/14 02:52:42;;;;;;;10.38;7.65;;;12.50;83.20;;;;;;5012578;28;20022;-74
2021/11/14 02:55:11;;;;;;;11.40;7.75;;;12.50;83.30;;;;;;4994640;28;20029;-74
2021/11/14 02:57:37;;;;;;;11.77;8.43;;;12.50;83.40;;;;;;4994675;28;20130;-75
2021/11/14 03:00:10;;;;;;;11.68;8.43;;;12.40;83.50;;;;;;4994597;28;20479;-75
2021/11/14 03:02:35;;;;;;;11.52;8.57;;;12.40;83.60;;;;;;5012219;28;20037;-74
2021/11/14 03:05:07;;;;;;;12.35;8.40;;;12.40;83.60;;;;;;5012204;28;20022;-74
2021/11/14 03:07:33;;;;;;;12.18;8.85;;;12.40;83.70;;;;;;4994701;28;20079;-75
2021/11/14 03:09:58;;;;;;;10.30;7.88;;;12.40;83.60;;;;;;5012258;28;20486;-75
2021/11/14 03:12:24;;;;;;;11.95;8.73;;;12.40;83.70;;;;;;4994631;28;20021;-76
2021/11/14 03:14:49;;;;;;;11.57;8.23;;;12.40;83.70;;;;;;4994452;28;20029;-74
2021/11/14 03:17:15;;;;;;;11.18;8.07;;;12.40;83.80;;;;;;5011610;28;20034;-75
2021/11/14 03:19:40;;;;;;;11.23;8.50;;;12.40;83.90;;;;;;5008487;28;20057;-75
2021/11/14 03:22:06;;;;;;;12.38;9.20;;;12.40;83.90;;;;;;5011968;28;20079;-75
2021/11/14 03:24:32;;;;;;;11.63;8.48;;;12.40;83.80;;;;;;4994372;28;20030;-75
2021/11/14 03:26:57;;;;;;;12.05;9.02;;;12.50;83.80;;;;;;4994224;28;20487;-74
2021/11/14 03:29:23;;;;;;;13.15;9.05;;;12.40;83.70;;;;;;4994446;28;20427;-74
2021/11/14 03:31:48;;;;;;;12.60;9.27;;;12.40;83.60;;;;;;4994290;28;20076;-74
2021/11/14 03:34:14;;;;;;;11.73;8.70;;;12.40;83.60;;;;;;5012078;28;20041;-75
2021/11/14 03:36:40;;;;;;;12.13;9.15;;;12.40;83.60;;;;;;5011874;28;20080;-75
2021/11/14 03:39:07;;;;;;;13.30;9.32;;;12.40;83.50;;;;;;5012115;28;20025;-75
2021/11/14 03:41:38;;;;;;;11.98;8.93;;;12.40;83.60;;;;;;4994345;28;20029;-74
2021/11/14 03:44:05;;;;;;;12.52;9.10;;;12.40;83.50;;;;;;4994343;28;20029;-76
2021/11/14 03:46:31;;;;;;;12.40;9.10;;;12.40;83.50;;;;;;4994185;28;20029;-74
2021/11/14 03:48:58;;;;;;;13.75;9.27;;;12.40;83.50;;;;;;4994429;28;20030;-74
2021/11/14 03:51:25;;;;;;;12.82;9.43;;;12.40;83.50;;;;;;5011907;28;20022;-75
2021/11/14 03:53:52;;;;;;;14.63;9.18;;;12.40;83.50;;;;;;4994301;28;20037;-74
2021/11/14 03:56:19;;;;;;;12.82;9.52;;;12.40;83.60;;;;;;4994004;28;20109;-75
2021/11/14 03:58:45;;;;;;;12.48;9.23;;;12.40;83.50;;;;;;4994223;28;20566;-75
2021/11/14 04:01:18;;;;;;;14.52;9.40;;;12.40;83.50;;;;;;4994247;28;20119;-74
2021/11/14 04:03:45;;;;;;;18.63;10.10;;;12.40;83.50;;;;;;5011794;28;20026;-74
2021/11/14 04:06:12;;;;;;;20.48;10.85;;;12.40;83.60;;;;;;5011497;28;20022;-74
2021/11/14 04:08:38;;;;;;;15.95;9.50;;;12.40;83.60;;;;;;4994135;28;20108;-74
2021/11/14 04:11:04;;;;;;;15.70;10.25;;;12.40;84.20;;;;;;4994265;28;20026;-75
2021/11/14 04:13:30;;;;;;;18.20;9.65;;;12.40;83.70;;;;;;4994227;28;20069;-73
2021/11/14 04:16:04;;;;;;;16.38;9.80;;;12.40;83.60;;;;;;4993935;28;20030;-72
2021/11/14 04:18:30;;;;;;;16.42;9.57;;;12.40;83.70;;;;;;4994264;28;20022;-73
2021/11/14 04:20:56;;;;;;;13.02;8.80;;;12.40;83.70;;;;;;4994335;28;20388;-75
2021/11/14 04:23:22;;;;;;;14.63;9.13;;;12.40;83.70;;;;;;5011542;28;20157;-74
2021/11/14 04:25:49;;;;;;;12.95;9.35;;;12.40;83.70;;;;;;4993765;28;20499;-75
2021/11/14 04:28:16;;;;;;;12.95;9.27;;;12.50;83.80;;;;;;5011783;28;20088;-74
2021/11/14 04:30:44;;;;;;;14.18;9.85;;;12.40;83.70;;;;;;4997347;28;20037;-74
2021/11/14 04:33:10;;;;;;;13.88;9.55;;;12.40;83.80;;;;;;5014978;28;20022;-75
2021/11/14 04:35:36;;;;;;;13.95;10.07;;;12.40;83.70;;;;;;5014743;28;20449;-74
2021/11/14 04:38:02;;;;;;;13.88;9.65;;;12.40;83.70;;;;;;5015034;28;20049;-74
2021/11/14 04:40:32;;;;;;;15.23;9.32;;;12.40;83.60;;;;;;4997402;28;20029;-74
2021/11/14 04:42:58;;;;;;;13.23;9.85;;;12.40;83.60;;;;;;4997213;28;20030;-75
2021/11/14 04:45:23;;;;;;;14.90;10.10;;;12.40;83.50;;;;;;4997021;28;20672;-74
2021/11/14 04:47:49;;;;;;;12.32;9.20;;;12.40;83.40;;;;;;4997041;28;20029;-74
2021/11/14 04:50:17;;;;;;;13.07;10.20;;;12.40;83.40;;;;;;5014719;28;20152;-75
2021/11/14 04:52:42;;;;;;;12.98;9.57;;;12.40;83.40;;;;;;5014691;28;20029;-74
2021/11/14 04:55:11;;;;;;;14.07;10.05;;;12.40;83.40;;;;;;5014472;28;20029;-74
2021/11/14 04:57:36;;;;;;;14.70;10.32;;;12.40;83.30;;;;;;5013305;28;20018;-74
2021/11/14 05:00:06;;;;;;;13.60;9.80;;;12.40;83.30;;;;;;5014534;28;20384;-74
2021/11/14 05:02:32;;;;;;;13.55;9.98;;;12.30;83.30;;;;;;5014363;28;20049;-76
2021/11/14 05:04:57;;;;;;;13.90;10.55;;;12.30;83.30;;;;;;4996799;28;20099;-75
2021/11/14 05:07:23;;;;;;;14.07;10.77;;;12.40;83.40;;;;;;4996771;28;20439;-75
2021/11/14 05:09:48;;;;;;;12.73;9.35;;;12.30;83.40;;;;;;4996873;28;20543;-75
2021/11/14 05:12:14;;;;;;;13.30;9.60;;;12.40;83.60;;;;;;5014141;28;20030;-76
2021/11/14 05:14:39;;;;;;;13.43;9.82;;;12.30;83.60;;;;;;4996693;28;20032;-75
2021/11/14 05:17:05;;;;;;;13.90;10.00;;;12.40;83.50;;;;;;4996314;28;20056;-75
2021/11/14 05:19:31;;;;;;;13.05;9.45;;;12.40;83.50;;;;;;4995646;28;20037;-76
2021/11/14 05:21:57;;;;;;;14.45;9.75;;;12.40;84.00;;;;;;5008868;28;20030;-75
2021/11/14 05:24:22;;;;;;;13.20;9.93;;;12.40;83.50;;;;;;4996541;28;20080;-75
2021/11/14 05:26:48;;;;;;;13.00;9.95;;;12.50;83.40;;;;;;4996282;28;20094;-74
2021/11/14 05:29:13;;;;;;;13.63;10.18;;;12.40;83.30;;;;;;5014066;28;20032;-75
2021/11/14 05:31:39;;;;;;;13.63;9.93;;;12.40;83.20;;;;;;4996228;28;20487;-74
2021/11/14 05:34:04;;;;;;;13.65;9.93;;;12.50;83.30;;;;;;4996512;28;20033;-75
2021/11/14 05:36:30;;;;;;;12.77;9.57;;;12.50;83.20;;;;;;4994595;28;20391;-75
2021/11/14 05:38:56;;;;;;;13.90;9.95;;;12.40;83.20;;;;;;5013010;28;20030;-75
2021/11/14 05:41:21;;;;;;;13.10;9.95;;;12.50;83.20;;;;;;4997071;28;20030;-75
2021/11/14 05:43:47;;;;;;;13.95;9.95;;;12.50;83.20;;;;;;5013563;28;20033;-75
2021/11/14 05:46:13;;;;;;;13.90;10.63;;;12.50;83.20;;;;;;4995673;28;20018;-75
2021/11/14 05:48:39;;;;;;;13.27;9.98;;;12.50;83.20;;;;;;4996042;28;20026;-74
2021/11/14 05:51:04;;;;;;;13.73;10.40;;;12.50;83.20;;;;;;5013672;28;20109;-76
2021/11/14 05:53:30;;;;;;;14.05;10.40;;;12.50;83.30;;;;;;5013518;28;20025;-75
2021/11/14 05:55:56;;;;;;;13.75;10.32;;;12.50;83.30;;;;;;4995716;28;20426;-74
2021/11/14 05:58:30;;;;;;;13.27;10.52;;;12.50;83.30;;;;;;4995874;28;20032;-74
2021/11/14 06:01:19;;;;;;;14.18;9.95;;;12.40;83.30;;;;;;4995847;28;20038;-75
2021/11/14 06:03:53;;;;;;;13.80;9.98;;;12.40;83.40;;;;;;5012724;28;20460;-76
2021/11/14 06:06:19;;;;;;;14.07;10.57;;;12.40;83.50;;;;;;5013044;28;20450;-76
2021/11/14 06:08:45;;;;;;;14.93;10.45;;;12.40;83.70;;;;;;4995652;28;20117;-74
2021/11/14 06:11:10;;;;;;;14.35;10.52;;;12.40;83.80;;;;;;4995416;28;20026;-75
2021/11/14 06:13:36;;;;;;;14.25;10.05;;;12.40;83.90;;;;;;4995748;28;20396;-75
2021/11/14 06:16:01;;;;;;;14.57;10.00;;;12.30;83.90;;;;;;5012938;28;20022;-76
2021/11/14 06:18:28;;;;;;;12.95;9.95;;;12.30;84.00;;;;;;4995525;28;20026;-74
2021/11/14 06:20:54;;;;;;;13.40;9.82;;;12.30;84.00;;;;;;4995394;28;20054;-74
2021/11/14 06:23:20;;;;;;;14.45;10.00;;;12.30;84.10;;;;;;4995529;28;20033;-76
2021/11/14 06:25:46;;;;;;;13.60;10.02;;;12.30;84.10;;;;;;4995131;28;20018;-74
2021/11/14 06:28:11;;;;;;;12.93;9.40;;;12.30;84.20;;;;;;4995316;28;20025;-75
2021/11/14 06:30:37;;;;;;;13.30;9.82;;;12.30;84.20;;;;;;5014122;28;20037;-75
2021/11/14 06:33:04;;;;;;;14.07;10.65;;;12.30;84.30;;;;;;5013086;28;20021;-75
2021/11/14 06:35:29;;;;;;;14.50;10.70;;;12.30;84.30;;;;;;5012714;28;20030;-76
2021/11/14 06:37:55;;;;;;;14.60;11.05;;;12.30;84.30;;;;;;5012915;28;20030;-74
2021/11/14 06:40:22;;;;;;;14.05;10.18;;;12.30;84.30;;;;;;5012880;28;20032;-74
2021/11/14 06:42:49;;;;;;;13.93;9.98;;;12.30;84.30;;;;;;5012796;28;20479;-75
2021/11/14 06:45:14;;;;;;;15.02;10.90;;;12.30;84.30;;;;;;5012638;28;20022;-75
2021/11/14 06:47:40;;;;;;;15.05;10.70;;;12.30;84.30;;;;;;4995343;28;20383;-74
2021/11/14 06:50:07;;;;;;;14.32;10.45;;;12.30;84.40;;;;;;5012687;28;20029;-75
2021/11/14 06:52:33;;;;;;;13.43;10.40;;;12.30;84.40;;;;;;5012130;28;20475;-75
2021/11/14 06:54:58;;;;;;;14.50;10.80;;;12.30;84.40;;;;;;4995046;28;20083;-74
2021/11/14 06:57:24;;;;;;;12.85;10.55;;;12.30;84.50;;;;;;4995068;28;20057;-74
2021/11/14 06:59:50;;;;;;;13.20;9.90;;;12.30;84.40;;;;;;5012576;28;20029;-74
2021/11/14 07:02:16;;;;;;;13.88;10.75;;;12.30;84.40;;;;;;5012644;28;20030;-75
2021/11/14 07:04:42;;;;;;;13.73;10.55;;;12.30;84.30;;;;;;5012490;28;20033;-74
2021/11/14 07:07:09;;;;;;;13.57;10.43;;;12.30;84.40;;;;;;5012545;28;20030;-76
2021/11/14 07:09:35;;;;;;;13.73;10.40;;;12.30;84.40;;;;;;5011149;28;20034;-77
2021/11/14 07:12:00;;;;;;;14.65;10.73;;;12.30;84.40;;;;;;5003902;28;20034;-75
2021/11/14 07:14:27;;;;;;;14.60;10.70;;;12.30;84.50;;;;;;4990875;28;20210;-76
2021/11/14 07:16:53;;;;;;;14.35;10.82;;;12.30;84.50;;;;;;4994054;28;20069;-76
2021/11/14 07:19:19;;;;;;;15.52;11.25;;;12.30;84.60;;;;;;4988931;28;20399;-79
2021/11/14 07:21:45;;;;;;;14.63;10.43;;;12.30;84.70;;;;;;4988814;28;20044;-74
2021/11/14 07:24:12;;;;;;;14.48;10.45;;;12.30;84.70;;;;;;4988807;28;20034;-79
2021/11/14 07:26:37;;;;;;;15.23;11.32;;;12.30;84.80;;;;;;4988057;28;20084;-75
2021/11/14 07:29:04;;;;;;;15.90;11.57;;;12.30;84.90;;;;;;4985591;28;20050;-79
2021/11/14 07:31:30;;;;;;;17.83;11.68;;;12.30;84.90;;;;;;4988738;28;20034;-77
2021/11/14 07:33:55;;;;;;;16.08;11.82;;;12.30;84.90;;;;;;4988590;28;20097;-76
2021/11/14 07:36:21;;;;;;;16.58;11.73;;;12.30;84.90;;;;;;4971440;28;20137;-74
2021/11/14 07:38:47;;;;;;;16.52;11.77;;;12.30;84.90;;;;;;4971441;28;20503;-76
2021/11/14 07:41:13;;;;;;;15.27;11.23;;;12.30;85.00;;;;;;4971402;28;20034;-75
2021/11/14 07:43:39;;;;;;;16.58;11.63;;;12.30;85.00;;;;;;4971370;28;20030;-77
2021/11/14 07:46:05;;;;;;;15.13;11.93;;;12.30;85.10;;;;;;4971235;28;20033;-73
2021/11/14 07:48:31;;;;;;;16.77;12.40;;;12.30;85.20;;;;;;4988524;28;20113;-79
2021/11/14 07:50:57;;;;;;;16.70;11.88;;;12.30;85.20;;;;;;4970967;28;20168;-77
2021/11/14 07:53:23;;;;;;;18.45;11.27;;;12.30;85.20;;;;;;4970377;28;20034;-74
2021/11/14 07:55:50;;;;;;;19.33;11.23;;;12.30;85.30;;;;;;4970781;28;20026;-74
2021/11/14 07:58:16;;;;;;;20.40;12.70;;;12.30;85.30;;;;;;4970641;28;20030;-76
2021/11/14 08:00:42;;;;;;;19.65;12.65;;;12.30;85.30;;;;;;4971556;28;20101;-75
2021/11/14 08:03:10;;;;;;;18.17;12.93;;;12.30;85.40;;;;;;4972703;28;20132;-74
2021/11/14 08:05:37;;;;;;;20.05;12.77;;;12.30;85.30;;;;;;4974451;28;20044;-75
2021/11/14 08:08:03;;;;;;;20.13;12.77;;;12.30;85.30;;;;;;4974853;28;20077;-75
2021/11/14 08:10:29;;;;;;;19.02;12.75;;;12.40;85.40;;;;;;4992183;28;20026;-75
2021/11/14 08:12:55;;;;;;;22.23;12.80;;;12.30;85.20;;;;;;4974754;28;20035;-74
2021/11/14 08:15:22;;;;;;;21.60;12.70;;;12.40;85.30;;;;;;4991907;28;20046;-74
2021/11/14 08:17:47;;;;;;;21.85;12.88;;;12.40;85.20;;;;;;4974852;28;20026;-75
2021/11/14 08:20:13;;;;;;;19.42;12.00;;;12.40;85.20;;;;;;4991936;28;20026;-75
2021/11/14 08:22:39;;;;;;;18.17;12.20;;;12.40;85.10;;;;;;4973337;28;20022;-75
2021/11/14 08:25:06;;;;;;;18.38;12.25;;;12.40;85.20;;;;;;4994598;28;20026;-76
2021/11/14 08:27:33;;;;;;;16.70;11.98;;;12.40;85.00;;;;;;4994321;28;20030;-75
2021/11/14 08:30:00;;;;;;;19.52;12.25;;;12.40;84.80;;;;;;4994161;28;21792;-75
2021/11/14 08:32:26;;;;;;;19.23;12.88;;;12.50;84.70;;;;;;4994860;28;20117;-75
2021/11/14 08:34:52;;;;;;;17.65;12.57;;;12.50;84.60;;;;;;4995625;28;20076;-76
2021/11/14 08:37:18;;;;;;;21.48;12.95;;;12.50;84.60;;;;;;4993875;28;20065;-76
2021/11/14 08:39:45;;;;;;;19.13;12.48;;;12.50;84.60;;;;;;5011382;28;20022;-76
2021/11/14 08:42:12;;;;;;;17.25;11.55;;;12.50;84.60;;;;;;5011478;28;20443;-77
2021/11/14 08:44:37;;;;;;;18.17;12.48;;;12.50;84.60;;;;;;4993951;28;20493;-76
2021/11/14 08:47:04;;;;;;;19.50;13.07;;;12.50;84.50;;;;;;4993680;28;20025;-78
2021/11/14 08:49:30;;;;;;;17.95;12.35;;;12.60;84.60;;;;;;5011139;28;20026;-76
2021/11/14 08:51:55;;;;;;;18.77;12.43;;;12.60;84.90;;;;;;4993700;28;20229;-75
2021/11/14 08:54:22;;;;;;;19.67;13.13;;;12.60;84.70;;;;;;4994182;28;20034;-75
2021/11/14 08:56:49;;;;;;;19.00;12.25;;;12.60;84.60;;;;;;5011710;28;20026;-77
2021/11/14 08:59:14;;;;;;;18.40;12.57;;;12.60;84.70;;;;;;4994653;28;20112;-75
2021/11/14 09:01:40;;;;;;;17.23;12.70;;;12.50;84.50;;;;;;5010566;28;20129;-79
2021/11/14 09:04:07;;;;;;;17.02;12.82;;;12.50;84.60;;;;;;4996013;28;20040;-76
2021/11/14 09:06:35;;;;;;;18.42;13.52;;;12.50;84.70;;;;;;5010866;28;20052;-76
2021/11/14 09:09:00;;;;;;;17.10;13.88;;;12.50;84.80;;;;;;5010893;28;20387;-75
2021/11/14 09:11:26;;;;;;;18.40;13.63;;;12.50;85.10;;;;;;4993411;28;20026;-76
2021/11/14 09:13:52;;;;;;;17.08;13.30;;;12.40;85.10;;;;;;5005063;28;20029;-75
2021/11/14 09:16:18;;;;;;;20.48;13.82;;;12.40;85.20;;;;;;4989678;28;20084;-76
2021/11/14 09:18:45;;;;;;;21.35;13.93;;;12.40;85.30;;;;;;4996736;28;20025;-75
2021/11/14 09:21:11;;;;;;;18.23;13.18;;;12.40;85.50;;;;;;5010440;28;20030;-76
2021/11/14 09:23:37;;;;;;;19.75;13.98;;;12.40;85.50;;;;;;4992846;28;20037;-77
2021/11/14 09:26:02;;;;;;;19.42;14.20;;;12.40;85.60;;;;;;4992738;28;20373;-76
2021/11/14 09:28:28;;;;;;;18.15;13.73;;;12.40;85.60;;;;;;5010783;28;20026;-76
2021/11/14 09:30:54;;;;;;;18.35;13.40;;;12.40;85.80;;;;;;4993152;28;20037;-76
2021/11/14 09:33:23;;;;;;;17.33;12.77;;;12.40;85.80;;;;;;5010917;28;20156;-75
2021/11/14 09:35:49;;;;;;;17.85;12.95;;;12.40;85.90;;;;;;4992237;28;20033;-75
2021/11/14 09:38:15;;;;;;;17.45;13.13;;;12.40;85.90;;;;;;5010291;28;20850;-76
2021/11/14 09:40:42;;;;;;;18.77;13.85;;;12.40;85.90;;;;;;5010079;28;20025;-76
2021/11/14 09:43:09;;;;;;;21.58;13.13;;;12.40;85.90;;;;;;4992396;28;20034;-76
2021/11/14 09:45:36;;;;;;;17.35;13.50;;;12.40;85.90;;;;;;4992495;28;20499;-75
2021/11/14 09:48:03;;;;;;;18.13;13.13;;;12.40;85.90;;;;;;5010134;28;20026;-76
2021/11/14 09:50:29;;;;;;;17.40;12.82;;;12.40;86.00;;;;;;4990185;28;20476;-78
2021/11/14 09:52:56;;;;;;;20.10;13.73;;;12.40;86.00;;;;;;4983870;28;20038;-77
2021/11/14 09:55:23;;;;;;;18.27;12.45;;;12.40;86.00;;;;;;5007642;28;20439;-83
2021/11/14 09:57:49;;;;;;;16.25;12.63;;;12.40;86.00;;;;;;4973980;28;20049;-76
2021/11/14 10:00:17;;;;;;;17.55;13.70;;;12.50;86.00;;;;;;4990115;28;20023;-76
2021/11/14 10:02:44;;;;;;;18.08;13.43;;;12.40;85.90;;;;;;4988668;28;20029;-77
2021/11/14 10:05:12;;;;;;;19.40;14.57;;;12.50;85.80;;;;;;5009292;28;20026;-75
2021/11/14 10:07:38;;;;;;;19.23;13.82;;;12.50;86.00;;;;;;4989991;28;20052;-76
2021/11/14 10:10:07;;;;;;;19.27;13.75;;;12.50;85.90;;;;;;4974051;28;20030;-76
2021/11/14 10:12:35;;;;;;;19.58;13.75;;;12.50;85.90;;;;;;4973000;28;20023;-75
2021/11/14 10:15:21;;;;;;;21.60;14.55;;;12.50;85.90;;;;;;4972729;28;20031;-75
2021/11/14 10:17:59;;;;;;;17.67;13.88;;;12.50;86.00;;;;;;4997321;28;20040;-77
2021/11/14 10:20:27;;;;;;;18.20;14.20;;;12.50;86.00;;;;;;5009930;28;20508;-75
2021/11/14 10:22:54;;;;;;;19.70;14.07;;;12.50;86.10;;;;;;4991841;28;20033;-75
2021/11/14 10:25:21;;;;;;;19.20;14.50;;;12.50;86.10;;;;;;4978743;28;20899;-75
2021/11/14 10:27:59;;;;;;;20.30;14.63;;;12.50;86.10;;;;;;4989070;28;20029;-75
2021/11/14 10:30:27;;;;;;;19.27;14.30;;;12.50;86.00;;;;;;4971998;28;20109;-75
2021/11/14 10:33:05;;;;;;;19.40;14.93;;;12.50;86.00;;;;;;4972229;28;20088;-77
2021/11/14 10:35:31;;;;;;;20.80;14.07;;;12.50;86.00;;;;;;5005762;28;20050;-75
2021/11/14 10:38:08;;;;;;;19.60;14.55;;;12.50;86.10;;;;;;5009414;28;20022;-75
2021/11/14 10:40:40;;;;;;;19.88;15.02;;;12.50;86.10;;;;;;4991456;28;20034;-79
2021/11/14 10:43:06;;;;;;;19.83;14.10;;;12.50;86.20;;;;;;4992637;28;20412;-75
2021/11/14 10:45:35;;;;;;;18.92;15.13;;;12.50;86.20;;;;;;4989570;28;20120;-75
2021/11/14 10:48:12;;;;;;;20.88;14.32;;;12.50;86.20;;;;;;4971718;28;20488;-75
2021/11/14 10:50:41;;;;;;;18.63;14.25;;;12.50;86.20;;;;;;4979922;28;20030;-74
2021/11/14 10:53:12;;;;;;;20.45;14.63;;;12.50;86.20;;;;;;5012854;28;20052;-74
2021/11/14 10:55:44;;;;;;;18.23;14.25;;;12.50;86.30;;;;;;4994803;28;20032;-74
2021/11/14 10:58:11;;;;;;;19.95;14.60;;;12.50;86.30;;;;;;5013012;28;20037;-75
2021/11/14 11:00:38;;;;;;;19.40;14.52;;;12.50;86.30;;;;;;5012758;28;20030;-75
2021/11/14 11:03:07;;;;;;;21.58;14.70;;;12.50;86.40;;;;;;5013094;28;20030;-76
2021/11/14 11:05:33;;;;;;;18.83;14.43;;;12.50;86.40;;;;;;5012239;28;20101;-75
2021/11/14 11:08:11;;;;;;;20.20;14.90;;;12.50;86.50;;;;;;4994564;28;20041;-75
2021/11/14 11:10:49;;;;;;;20.85;15.52;;;12.50;86.50;;;;;;5012302;28;20029;-73
2021/11/14 11:13:28;;;;;;;18.85;14.65;;;12.50;86.50;;;;;;5012331;28;20492;-74
2021/11/14 11:15:54;;;;;;;20.40;15.52;;;12.50;86.50;;;;;;5012103;28;20541;-73
2021/11/14 11:18:21;;;;;;;20.50;14.93;;;12.50;86.40;;;;;;4994961;28;20029;-74
2021/11/14 11:20:53;;;;;;;19.25;15.35;;;12.50;86.50;;;;;;5012065;28;20022;-74
2021/11/14 11:23:21;;;;;;;19.92;14.30;;;12.50;86.90;;;;;;4994714;28;20466;-75
2021/11/14 11:25:52;;;;;;;19.35;14.65;;;12.60;86.40;;;;;;4994345;28;20095;-74
2021/11/14 11:28:27;;;;;;;19.10;14.68;;;12.60;86.40;;;;;;5012716;28;20018;-75
2021/11/14 11:31:14;;;;;;;21.88;15.63;;;12.50;86.30;;;;;;5011873;28;20034;-75
2021/11/14 11:33:43;;;;;;;17.73;13.88;;;12.60;86.50;;;;;;4994705;28;20022;-73
2021/11/14 11:36:10;;;;;;;20.52;15.20;;;12.50;86.50;;;;;;4994318;28;20032;-74
2021/11/14 11:38:41;;;;;;;19.55;14.95;;;12.50;86.50;;;;;;5014485;28;20391;-74
2021/11/14 11:41:07;;;;;;;18.88;14.40;;;12.50;86.20;;;;;;4998432;28;20067;-73
2021/11/14 11:43:34;;;;;;;19.17;14.85;;;12.50;86.00;;;;;;4998566;28;20487;-75
2021/11/14 11:46:09;;;;;;;18.13;14.35;;;12.60;86.10;;;;;;4998150;28;20029;-74
2021/11/14 11:48:38;;;;;;;19.40;15.18;;;12.60;86.00;;;;;;5015372;28;20026;-73
2021/11/14 11:51:11;;;;;;;20.73;15.07;;;12.70;86.00;;;;;;4998085;28;20365;-75
2021/11/14 11:53:38;;;;;;;19.50;15.13;;;12.60;85.90;;;;;;5015699;28;20022;-75
2021/11/14 11:56:11;;;;;;;19.17;14.43;;;12.70;85.90;;;;;;5015454;28;20037;-75
2021/11/14 11:58:57;;;;;;;19.73;14.20;;;12.70;85.90;;;;;;4998084;28;20532;-78
2021/11/14 12:01:29;;;;;;;19.75;14.65;;;12.70;85.80;;;;;;4998276;28;20030;-74
2021/11/14 12:03:55;;;;;;;;;;;12.70;85.90;;;;;;5015840;28;20038;-74
2021/11/14 12:06:25;;;;;;;18.70;13.82;;;12.70;85.80;;;;;;4997771;28;19905;-74
2021/11/14 12:08:53;;;;;;;19.08;14.38;;;12.70;85.90;;;;;;4997927;28;20031;-74
2021/11/14 12:11:31;;;;;;;22.15;14.85;;;12.70;85.80;;;;;;4997856;28;20021;-75
2021/11/14 12:14:00;;;;;;;30.15;15.27;;;12.70;86.10;;;;;;5015359;28;20041;-74
2021/11/14 12:16:31;;;;;;;41.97;16.40;;;12.70;86.10;;;;;;5015223;28;20022;-74
2021/11/14 12:18:58;;;;;;;445.40;37.92;;;12.70;86.40;;;;;;4997824;28;20040;-75
2021/11/14 12:21:25;;;;;;;30.48;15.27;;;12.70;87.00;;;;;;4998044;28;20030;-75
2021/11/14 12:23:57;;;;;;;37.30;15.77;;;12.60;86.20;;;;;;4997892;28;20100;-75
2021/11/14 12:26:30;;;;;;;32.13;16.38;;;12.60;86.40;;;;;;5014968;28;20018;-75
2021/11/14 12:28:59;;;;;;;29.92;15.40;;;12.60;86.70;;;;;;4997772;28;20022;-75
2021/11/14 12:31:29;;;;;;;110.75;20.75;;;12.60;86.90;;;;;;5037076;22;20046;-77